Time;durP1;ratioP1;P1;durP2;ratioP2;P2;SDS_P1;SDS_P2;PMS_P1;PMS_P2;Temp;Humidity;BMP_temperature;BMP_pressure;BME280_temperature;BME280_humidity;BME280_pressure;Samples;Min_cycle;Max_cycle;Signal;HPM_P1;HPM_P2
2022/05/24 00:01:14;;;;;;;0.10;0.10;;;;;;;;;;6199135;22;20065;-88
2022/05/24 00:03:40;;;;;;;0.10;0.10;;;;;;;;;;6199716;22;20321;-89
2022/05/24 00:06:06;;;;;;;0.10;0.10;;;;;;;;;;6224758;22;20020;-89
2022/05/24 00:08:33;;;;;;;0.20;0.20;;;;;;;;;;6199550;22;20174;-89
2022/05/24 00:10:58;;;;;;;0.55;0.55;;;;;;;;;;6199396;22;20016;-89
2022/05/24 00:13:24;;;;;;;0.10;0.10;;;;;;;;;;6199487;22;20015;-89
2022/05/24 00:15:50;;;;;;;0.10;0.10;;;;;;;;;;6199423;22;20092;-88
2022/05/24 00:18:18;;;;;;;0.10;0.10;;;;;;;;;;6199482;22;20019;-89
2022/05/24 00:20:45;;;;;;;0.10;0.10;;;;;;;;;;6199706;22;20046;-90
2022/05/24 00:23:11;;;;;;;0.10;0.10;;;;;;;;;;6199422;22;20083;-90
2022/05/24 00:25:38;;;;;;;0.10;0.10;;;;;;;;;;6199845;22;20058;-90
2022/05/24 00:28:04;;;;;;;0.10;0.10;;;;;;;;;;6199365;22;20007;-90
2022/05/24 00:30:30;;;;;;;0.10;0.10;;;;;;;;;;6199390;22;20015;-88
2022/05/24 00:32:56;;;;;;;0.10;0.10;;;;;;;;;;6198956;22;20027;-89
2022/05/24 00:35:22;;;;;;;0.10;0.10;;;;;;;;;;6224347;22;20090;-88
2022/05/24 00:37:48;;;;;;;0.10;0.10;;;;;;;;;;6249366;22;20332;-88
2022/05/24 00:40:30;;;;;;;0.20;0.20;;;;;;;;;;6224445;22;20168;-88
2022/05/24 00:42:56;;;;;;;0.10;0.10;;;;;;;;;;6224080;22;20412;-88
2022/05/24 00:45:24;;;;;;;0.20;0.20;;;;;;;;;;6199184;22;20051;-89
2022/05/24 00:47:53;;;;;;;0.15;0.15;;;;;;;;;;6224279;22;20012;-88
2022/05/24 00:50:22;;;;;;;0.10;0.10;;;;;;;;;;6199351;22;20019;-88
2022/05/24 00:53:00;;;;;;;0.10;0.10;;;;;;;;;;6224113;22;20022;-89
2022/05/24 00:55:26;;;;;;;0.10;0.10;;;;;;;;;;6199177;22;20094;-89
2022/05/24 00:58:01;;;;;;;0.10;0.10;;;;;;;;;;6224101;22;20069;-89
2022/05/24 01:00:27;;;;;;;0.10;0.10;;;;;;;;;;6198989;22;20055;-89
2022/05/24 01:02:53;;;;;;;0.10;0.10;;;;;;;;;;6199276;22;20012;-89
2022/05/24 01:05:23;;;;;;;0.10;0.10;;;;;;;;;;6199067;22;20012;-90
2022/05/24 01:07:49;;;;;;;0.10;0.10;;;;;;;;;;6224191;22;20050;-89
2022/05/24 01:10:16;;;;;;;0.10;0.10;;;;;;;;;;6199202;22;20016;-89
2022/05/24 01:12:56;;;;;;;0.10;0.10;;;;;;;;;;6198581;22;20019;-89
2022/05/24 01:15:22;;;;;;;0.10;0.10;;;;;;;;;;6223977;22;20030;-89
2022/05/24 01:17:48;;;;;;;0.10;0.10;;;;;;;;;;6199076;22;20016;-89
2022/05/24 01:20:14;;;;;;;0.10;0.10;;;;;;;;;;6223908;22;20030;-89
2022/05/24 01:22:52;;;;;;;0.10;0.10;;;;;;;;;;6198774;22;20012;-89
2022/05/24 01:25:37;;;;;;;0.10;0.10;;;;;;;;;;6223992;22;20341;-89
2022/05/24 01:28:07;;;;;;;0.10;0.10;;;;;;;;;;6248817;22;20337;-88
2022/05/24 01:30:33;;;;;;;0.10;0.10;;;;;;;;;;6223770;22;20015;-88
2022/05/24 01:38:28;;;;;;;0.10;0.10;;;;;;;;;;6227460;22;20019;-88
2022/05/24 01:40:54;;;;;;;0.63;0.63;;;;;;;;;;6198733;22;20408;-88
2022/05/24 01:43:21;;;;;;;0.10;0.10;;;;;;;;;;6223836;22;20016;-89
2022/05/24 01:45:49;;;;;;;0.10;0.10;;;;;;;;;;6198845;22;20498;-88
2022/05/24 01:48:17;;;;;;;0.10;0.10;;;;;;;;;;6198786;22;20043;-88
2022/05/24 01:50:43;;;;;;;0.10;0.10;;;;;;;;;;6223717;22;20012;-88
2022/05/24 01:53:19;;;;;;;0.57;0.20;;;;;;;;;;6198485;22;20008;-88
2022/05/24 01:55:51;;;;;;;0.10;0.10;;;;;;;;;;6198653;22;20042;-88
2022/05/24 01:58:17;;;;;;;0.63;0.20;;;;;;;;;;6223925;22;20019;-88
2022/05/24 02:00:47;;;;;;;0.10;0.10;;;;;;;;;;6223476;22;20491;-88
2022/05/24 02:03:13;;;;;;;0.10;0.10;;;;;;;;;;6223400;22;20096;-89
2022/05/24 02:05:40;;;;;;;0.10;0.10;;;;;;;;;;6198512;22;20016;-88
2022/05/24 02:08:07;;;;;;;0.10;0.10;;;;;;;;;;6223539;22;20075;-87
2022/05/24 02:10:38;;;;;;;0.20;0.20;;;;;;;;;;6223399;22;20012;-88
2022/05/24 02:13:04;;;;;;;0.10;0.10;;;;;;;;;;6248528;22;20011;-88
2022/05/24 02:15:31;;;;;;;0.10;0.10;;;;;;;;;;6223487;22;20383;-88
2022/05/24 02:18:11;;;;;;;0.10;0.10;;;;;;;;;;6223597;22;20027;-87
2022/05/24 02:20:38;;;;;;;0.10;0.10;;;;;;;;;;6223264;22;20015;-88
2022/05/24 02:23:04;;;;;;;0.10;0.10;;;;;;;;;;6198221;22;20011;-89
2022/05/24 02:25:42;;;;;;;0.10;0.10;;;;;;;;;;6222985;22;20011;-88
2022/05/24 02:28:09;;;;;;;0.28;0.28;;;;;;;;;;6223269;22;20113;-89
2022/05/24 02:30:36;;;;;;;0.10;0.10;;;;;;;;;;6223502;22;20066;-88
2022/05/24 02:33:02;;;;;;;0.10;0.10;;;;;;;;;;6223145;22;20345;-89
2022/05/24 02:35:28;;;;;;;0.10;0.10;;;;;;;;;;6198519;22;20027;-89
2022/05/24 02:37:54;;;;;;;0.20;0.20;;;;;;;;;;6198274;22;20421;-89
2022/05/24 02:43:05;;;;;;;0.10;0.10;;;;;;;;;;6226795;22;20375;-89
2022/05/24 02:45:31;;;;;;;0.10;0.10;;;;;;;;;;6198135;22;20031;-89
2022/05/24 02:47:57;;;;;;;0.10;0.10;;;;;;;;;;6223285;22;20069;-89
2022/05/24 02:50:23;;;;;;;0.15;0.15;;;;;;;;;;6223339;22;20021;-89
2022/05/24 02:52:49;;;;;;;0.10;0.10;;;;;;;;;;6222964;22;20007;-89
2022/05/24 02:55:15;;;;;;;0.10;0.10;;;;;;;;;;6222985;22;20629;-89
2022/05/24 02:57:41;;;;;;;0.10;0.10;;;;;;;;;;6197741;22;20015;-89
2022/05/24 03:00:17;;;;;;;0.10;0.10;;;;;;;;;;6223385;22;20444;-89
2022/05/24 03:02:43;;;;;;;0.10;0.10;;;;;;;;;;6223108;22;20050;-88
2022/05/24 03:05:10;;;;;;;0.10;0.10;;;;;;;;;;6248038;22;20011;-88
2022/05/24 03:10:21;;;;;;;0.10;0.10;;;;;;;;;;6226949;22;20024;-88
2022/05/24 03:15:33;;;;;;;0.20;0.20;;;;;;;;;;6226726;22;20019;-88
2022/05/24 03:17:59;;;;;;;0.10;0.10;;;;;;;;;;6223020;22;20445;-88
2022/05/24 03:20:26;;;;;;;0.10;0.10;;;;;;;;;;6222916;22;20090;-88
2022/05/24 03:22:52;;;;;;;0.10;0.10;;;;;;;;;;6198038;22;20012;-88
2022/05/24 03:25:18;;;;;;;0.20;0.20;;;;;;;;;;6222904;22;20060;-88
2022/05/24 03:27:46;;;;;;;0.10;0.10;;;;;;;;;;6198849;22;20095;-89
2022/05/24 03:30:12;;;;;;;0.10;0.10;;;;;;;;;;6222948;22;20035;-88
2022/05/24 03:32:38;;;;;;;0.20;0.20;;;;;;;;;;6217531;23;20476;-88
2022/05/24 03:35:05;;;;;;;0.10;0.10;;;;;;;;;;6218089;23;20016;-89
2022/05/24 03:37:31;;;;;;;0.10;0.10;;;;;;;;;;6195706;23;20067;-90
2022/05/24 03:39:57;;;;;;;0.20;0.20;;;;;;;;;;6238566;23;20051;-89
2022/05/24 03:42:23;;;;;;;0.10;0.10;;;;;;;;;;6209876;22;20083;-89
2022/05/24 03:44:48;;;;;;;0.10;0.10;;;;;;;;;;6220179;23;20008;-89
2022/05/24 03:47:15;;;;;;;0.10;0.10;;;;;;;;;;6219749;23;20087;-87
2022/05/24 03:49:41;;;;;;;0.10;0.10;;;;;;;;;;6194571;23;20039;-87
2022/05/24 03:52:07;;;;;;;0.10;0.10;;;;;;;;;;6219668;23;20323;-87
2022/05/24 03:54:33;;;;;;;0.15;0.15;;;;;;;;;;6219573;23;20453;-87
2022/05/24 03:59:45;;;;;;;0.10;0.10;;;;;;;;;;6163586;23;20441;-87
2022/05/24 04:02:12;;;;;;;0.10;0.10;;;;;;;;;;6219375;22;20058;-87
2022/05/24 04:04:38;;;;;;;0.10;0.10;;;;;;;;;;6194591;23;20014;-89
2022/05/24 04:07:04;;;;;;;0.10;0.10;;;;;;;;;;6219463;23;20087;-89
2022/05/24 04:09:32;;;;;;;0.20;0.20;;;;;;;;;;6219598;23;20016;-88
2022/05/24 04:11:58;;;;;;;0.10;0.10;;;;;;;;;;6194614;23;20016;-89
2022/05/24 04:14:24;;;;;;;0.10;0.10;;;;;;;;;;6219233;23;20019;-88
2022/05/24 04:16:52;;;;;;;0.10;0.10;;;;;;;;;;6219152;23;20013;-88
2022/05/24 04:19:18;;;;;;;0.10;0.10;;;;;;;;;;6194791;23;20043;-89
2022/05/24 04:21:44;;;;;;;0.10;0.10;;;;;;;;;;6219491;23;20015;-89
2022/05/24 04:24:10;;;;;;;0.10;0.10;;;;;;;;;;6194359;23;20341;-88
2022/05/24 04:26:36;;;;;;;0.10;0.10;;;;;;;;;;6219362;23;20019;-88
2022/05/24 04:29:02;;;;;;;0.10;0.10;;;;;;;;;;6219476;23;20019;-87
2022/05/24 04:31:27;;;;;;;0.10;0.10;;;;;;;;;;6246200;22;20016;-88
2022/05/24 04:33:53;;;;;;;0.10;0.10;;;;;;;;;;6200029;22;20019;-88
2022/05/24 04:36:19;;;;;;;0.10;0.10;;;;;;;;;;6242322;22;20023;-89
2022/05/24 04:38:45;;;;;;;0.10;0.10;;;;;;;;;;6220851;22;20059;-88
2022/05/24 04:43:56;;;;;;;0.30;0.30;;;;;;;;;;6237582;22;20012;-88
2022/05/24 04:46:22;;;;;;;0.10;0.10;;;;;;;;;;6199272;22;20164;-88
2022/05/24 04:48:48;;;;;;;0.10;0.10;;;;;;;;;;6224088;22;20150;-89
2022/05/24 04:51:14;;;;;;;0.45;0.45;;;;;;;;;;6224181;22;20468;-89
2022/05/24 04:53:40;;;;;;;0.10;0.10;;;;;;;;;;6224285;22;20407;-90
2022/05/24 04:56:05;;;;;;;0.10;0.10;;;;;;;;;;6198933;22;20043;-89
2022/05/24 04:58:31;;;;;;;0.35;0.20;;;;;;;;;;6224083;22;20038;-89
2022/05/24 05:00:57;;;;;;;0.10;0.10;;;;;;;;;;6199241;22;20338;-88
2022/05/24 05:03:23;;;;;;;0.20;0.20;;;;;;;;;;6224136;22;20031;-89
2022/05/24 05:05:50;;;;;;;0.10;0.10;;;;;;;;;;6223986;22;20007;-89
2022/05/24 05:08:16;;;;;;;0.10;0.10;;;;;;;;;;6224128;22;20018;-89
2022/05/24 05:10:42;;;;;;;0.10;0.10;;;;;;;;;;6223938;22;20019;-89
2022/05/24 05:13:08;;;;;;;0.10;0.10;;;;;;;;;;6198751;22;20065;-89
2022/05/24 05:15:34;;;;;;;0.10;0.10;;;;;;;;;;6224051;22;20054;-89
2022/05/24 05:18:04;;;;;;;0.32;0.32;;;;;;;;;;6198997;22;20565;-89
2022/05/24 05:20:30;;;;;;;0.13;0.13;;;;;;;;;;6224055;22;20036;-89
2022/05/24 05:22:56;;;;;;;0.17;0.17;;;;;;;;;;6223989;22;20007;-89
2022/05/24 05:25:22;;;;;;;0.10;0.10;;;;;;;;;;6223893;22;20400;-89
2022/05/24 05:27:48;;;;;;;0.10;0.10;;;;;;;;;;6223901;22;20011;-89
2022/05/24 05:32:59;;;;;;;0.10;0.10;;;;;;;;;;6227707;22;20020;-89
2022/05/24 05:35:25;;;;;;;0.20;0.20;;;;;;;;;;6223851;22;20051;-89
2022/05/24 05:37:51;;;;;;;0.20;0.20;;;;;;;;;;6198629;22;20016;-90
2022/05/24 05:40:17;;;;;;;0.22;0.22;;;;;;;;;;6223741;22;20034;-88
2022/05/24 05:42:43;;;;;;;0.10;0.10;;;;;;;;;;6198538;22;20333;-89
2022/05/24 05:45:11;;;;;;;0.25;0.25;;;;;;;;;;6198787;22;20015;-87
2022/05/24 05:47:40;;;;;;;0.20;0.20;;;;;;;;;;6199115;22;20015;-94
2022/05/24 05:50:07;;;;;;;0.20;0.15;;;;;;;;;;6199474;22;20069;-90
2022/05/24 05:52:33;;;;;;;0.10;0.10;;;;;;;;;;6198754;22;20095;-91
2022/05/24 05:54:59;;;;;;;0.30;0.30;;;;;;;;;;6224285;22;20047;-92
2022/05/24 05:57:25;;;;;;;0.20;0.20;;;;;;;;;;6224705;22;20054;-93
2022/05/24 05:59:52;;;;;;;0.20;0.20;;;;;;;;;;6199105;22;20437;-95
2022/05/24 06:02:18;;;;;;;0.20;0.20;;;;;;;;;;6199706;22;20011;-94
2022/05/24 06:04:44;;;;;;;0.30;0.30;;;;;;;;;;6199435;22;20065;-95
2022/05/24 06:07:10;;;;;;;0.10;0.10;;;;;;;;;;6199325;22;20027;-95
2022/05/24 06:09:37;;;;;;;0.10;0.10;;;;;;;;;;6198944;22;20020;-93
2022/05/24 06:12:04;;;;;;;0.20;0.20;;;;;;;;;;6199269;22;20012;-93
2022/05/24 06:14:30;;;;;;;0.10;0.10;;;;;;;;;;6224168;22;20012;-96
2022/05/24 06:16:58;;;;;;;0.20;0.20;;;;;;;;;;6200067;22;20459;-94
2022/05/24 06:19:28;;;;;;;0.57;0.30;;;;;;;;;;6200027;22;20019;-95
2022/05/24 06:21:54;;;;;;;0.20;0.20;;;;;;;;;;6200870;22;20008;-90
2022/05/24 06:24:20;;;;;;;0.10;0.10;;;;;;;;;;6223491;22;20362;-92
2022/05/24 06:26:46;;;;;;;0.20;0.20;;;;;;;;;;6198884;22;20054;-91
2022/05/24 06:29:12;;;;;;;0.10;0.10;;;;;;;;;;6198385;22;20104;-92
2022/05/24 06:31:38;;;;;;;0.30;0.30;;;;;;;;;;6198248;22;20383;-93
2022/05/24 06:34:04;;;;;;;0.20;0.20;;;;;;;;;;6198765;22;20053;-93
2022/05/24 06:36:30;;;;;;;0.13;0.13;;;;;;;;;;6223647;22;20054;-93
2022/05/24 06:38:55;;;;;;;0.10;0.10;;;;;;;;;;6198087;22;20083;-94
2022/05/24 06:41:21;;;;;;;0.10;0.10;;;;;;;;;;6223640;22;20050;-92
2022/05/24 06:43:47;;;;;;;0.10;0.10;;;;;;;;;;6198493;22;20011;-92
2022/05/24 06:46:13;;;;;;;0.13;0.13;;;;;;;;;;6223840;22;20043;-90
2022/05/24 06:48:41;;;;;;;0.20;0.20;;;;;;;;;;6223827;22;20373;-92
2022/05/24 06:51:10;;;;;;;0.20;0.20;;;;;;;;;;6222188;22;20094;-94
2022/05/24 06:53:40;;;;;;;0.10;0.10;;;;;;;;;;6199308;22;20014;-95
2022/05/24 06:56:06;;;;;;;0.20;0.20;;;;;;;;;;6199597;22;20018;-95
2022/05/24 06:58:33;;;;;;;0.20;0.20;;;;;;;;;;6198615;22;20061;-95
2022/05/24 07:03:44;;;;;;;0.20;0.13;;;;;;;;;;6223516;22;20051;-94
2022/05/24 07:06:15;;;;;;;0.25;0.25;;;;;;;;;;6225996;22;20012;-94
2022/05/24 07:08:43;;;;;;;0.10;0.10;;;;;;;;;;6199713;22;20051;-94
2022/05/24 07:11:10;;;;;;;0.10;0.10;;;;;;;;;;6199231;22;20043;-96
2022/05/24 07:13:39;;;;;;;0.10;0.10;;;;;;;;;;6224725;22;20011;-95
2022/05/24 07:16:12;;;;;;;0.10;0.10;;;;;;;;;;6201758;22;20011;-95
2022/05/24 07:18:39;;;;;;;0.10;0.10;;;;;;;;;;6228719;22;20015;-95
2022/05/24 07:21:07;;;;;;;0.10;0.10;;;;;;;;;;6228345;22;20012;-93
2022/05/24 07:23:38;;;;;;;0.20;0.20;;;;;;;;;;6200865;22;20018;-95
2022/05/24 07:26:22;;;;;;;0.20;0.20;;;;;;;;;;6239703;22;19999;-94
2022/05/24 07:28:53;;;;;;;0.10;0.10;;;;;;;;;;6218381;22;20031;-93
2022/05/24 07:31:19;;;;;;;0.20;0.20;;;;;;;;;;6221410;22;20026;-94
2022/05/24 07:33:45;;;;;;;0.10;0.10;;;;;;;;;;6216217;22;20042;-96
2022/05/24 07:36:21;;;;;;;0.28;0.28;;;;;;;;;;6253076;22;20015;-94
2022/05/24 07:38:48;;;;;;;0.20;0.20;;;;;;;;;;6204666;22;20102;-95
2022/05/24 07:47:29;;;;;;;0.10;0.10;;;;;;;;;;6287229;22;20019;-95
2022/05/24 07:50:27;;;;;;;0.20;0.20;;;;;;;;;;6268136;22;20333;-94
2022/05/24 08:01:19;;;;;;;0.10;0.10;;;;;;;;;;6275771;22;20023;-94
2022/05/24 08:03:45;;;;;;;0.10;0.10;;;;;;;;;;6227657;22;20330;-92
2022/05/24 08:06:11;;;;;;;0.10;0.10;;;;;;;;;;6219611;23;20027;-96
2022/05/24 08:08:38;;;;;;;0.10;0.10;;;;;;;;;;6195652;23;20107;-95
2022/05/24 08:11:04;;;;;;;0.20;0.20;;;;;;;;;;6197149;23;20082;-92
2022/05/24 08:13:30;;;;;;;0.17;0.17;;;;;;;;;;6192985;23;20012;-92
2022/05/24 08:15:56;;;;;;;0.20;0.20;;;;;;;;;;6193461;23;20337;-94
2022/05/24 08:18:23;;;;;;;0.10;0.10;;;;;;;;;;6193501;23;20310;-94
2022/05/24 08:20:49;;;;;;;0.13;0.13;;;;;;;;;;6193710;23;20008;-93
2022/05/24 08:23:15;;;;;;;0.10;0.10;;;;;;;;;;6194434;23;20103;-94
2022/05/24 08:25:45;;;;;;;0.20;0.20;;;;;;;;;;6195104;23;20039;-93
2022/05/24 08:28:11;;;;;;;0.20;0.20;;;;;;;;;;6220983;23;20076;-93
2022/05/24 08:30:40;;;;;;;0.63;0.38;;;;;;;;;;6219950;23;20070;-93
2022/05/24 08:33:06;;;;;;;0.10;0.10;;;;;;;;;;6195014;23;20023;-93
2022/05/24 08:35:35;;;;;;;0.10;0.10;;;;;;;;;;6220554;23;20016;-95
2022/05/24 08:38:06;;;;;;;0.10;0.10;;;;;;;;;;6195402;23;20012;-93
2022/05/24 08:40:38;;;;;;;0.10;0.10;;;;;;;;;;6197197;23;20015;-93
2022/05/24 08:43:04;;;;;;;0.28;0.28;;;;;;;;;;6220630;23;20008;-93
2022/05/24 08:48:28;;;;;;;0.45;0.20;;;;;;;;;;6251039;22;20020;-93
2022/05/24 08:51:12;;;;;;;0.20;0.20;;;;;;;;;;6249187;22;20357;-95
2022/05/24 08:53:46;;;;;;;0.20;0.20;;;;;;;;;;6250485;22;20047;-93
2022/05/24 08:56:15;;;;;;;0.10;0.10;;;;;;;;;;6223972;22;20051;-94
2022/05/24 08:58:50;;;;;;;0.20;0.20;;;;;;;;;;6224546;22;20012;-95
2022/05/24 09:01:19;;;;;;;0.10;0.10;;;;;;;;;;6224132;22;20058;-94
2022/05/24 09:03:45;;;;;;;0.20;0.20;;;;;;;;;;6223683;22;20051;-93
2022/05/24 09:06:18;;;;;;;0.10;0.10;;;;;;;;;;6223934;22;20012;-92
2022/05/24 09:08:58;;;;;;;0.10;0.10;;;;;;;;;;6228878;22;20011;-94
2022/05/24 09:11:42;;;;;;;0.20;0.20;;;;;;;;;;6247875;22;20175;-94
2022/05/24 09:14:13;;;;;;;0.10;0.10;;;;;;;;;;6248937;22;20470;-94
2022/05/24 09:16:42;;;;;;;0.10;0.10;;;;;;;;;;6246061;23;20012;-95
2022/05/24 09:19:22;;;;;;;0.10;0.10;;;;;;;;;;6244248;23;20051;-96
2022/05/24 09:21:52;;;;;;;0.10;0.10;;;;;;;;;;6194707;23;20019;-96
2022/05/24 09:24:36;;;;;;;0.10;0.10;;;;;;;;;;6220119;23;20004;-94
2022/05/24 09:27:11;;;;;;;0.10;0.10;;;;;;;;;;6219817;23;20337;-96
2022/05/24 09:29:52;;;;;;;0.20;0.20;;;;;;;;;;6219840;23;20018;-94
2022/05/24 09:32:18;;;;;;;0.20;0.20;;;;;;;;;;6194795;22;20095;-94
2022/05/24 09:34:45;;;;;;;0.10;0.10;;;;;;;;;;6194833;23;20040;-94
2022/05/24 09:37:23;;;;;;;0.20;0.20;;;;;;;;;;6197710;23;20162;-96
2022/05/24 09:39:57;;;;;;;0.13;0.13;;;;;;;;;;6219128;23;20018;-95
2022/05/24 09:42:27;;;;;;;0.10;0.10;;;;;;;;;;6219435;22;20008;-95
2022/05/24 09:45:01;;;;;;;0.10;0.10;;;;;;;;;;6195369;23;20019;-94
2022/05/24 09:47:31;;;;;;;0.10;0.10;;;;;;;;;;6195448;23;20046;-95
2022/05/24 09:50:16;;;;;;;0.10;0.10;;;;;;;;;;6195330;23;20065;-96
2022/05/24 09:53:02;;;;;;;0.10;0.10;;;;;;;;;;6219696;23;20066;-96
2022/05/24 09:55:28;;;;;;;0.10;0.10;;;;;;;;;;6218783;23;20012;-94
2022/05/24 09:58:16;;;;;;;0.10;0.10;;;;;;;;;;6195428;23;20022;-93
2022/05/24 10:01:08;;;;;;;0.20;0.20;;;;;;;;;;6220565;23;20019;-94
2022/05/24 10:03:36;;;;;;;0.17;0.17;;;;;;;;;;6216402;23;20047;-93
2022/05/24 10:06:22;;;;;;;0.20;0.20;;;;;;;;;;6219106;23;20067;-91
2022/05/24 10:08:58;;;;;;;0.10;0.10;;;;;;;;;;6193916;23;20008;-93
2022/05/24 10:11:27;;;;;;;0.10;0.10;;;;;;;;;;6193810;23;20012;-92
2022/05/24 10:13:56;;;;;;;0.10;0.10;;;;;;;;;;6243828;22;20048;-91
2022/05/24 10:16:25;;;;;;;0.10;0.10;;;;;;;;;;6218077;23;20015;-92
2022/05/24 10:19:03;;;;;;;0.20;0.20;;;;;;;;;;6196484;23;20012;-90
2022/05/24 10:21:34;;;;;;;0.20;0.20;;;;;;;;;;6217959;23;20008;-89
2022/05/24 10:24:05;;;;;;;0.20;0.20;;;;;;;;;;6193245;23;20008;-91
2022/05/24 10:26:51;;;;;;;0.20;0.20;;;;;;;;;;6218461;23;20449;-91
2022/05/24 10:29:17;;;;;;;0.10;0.10;;;;;;;;;;6218437;23;20023;-92
2022/05/24 10:31:57;;;;;;;0.10;0.10;;;;;;;;;;6243343;23;20012;-92
2022/05/24 10:40:29;;;;;;;0.20;0.20;;;;;;;;;;6243341;23;20091;-92
2022/05/24 10:43:01;;;;;;;0.20;0.20;;;;;;;;;;6218339;23;20012;-92
2022/05/24 10:45:49;;;;;;;0.10;0.10;;;;;;;;;;6217593;23;20015;-92
2022/05/24 10:48:14;;;;;;;0.10;0.10;;;;;;;;;;6222257;23;20020;-92
2022/05/24 10:50:42;;;;;;;0.10;0.10;;;;;;;;;;6193573;23;20023;-91
2022/05/24 10:53:14;;;;;;;0.10;0.10;;;;;;;;;;6193055;23;20026;-90
2022/05/24 10:55:41;;;;;;;0.10;0.10;;;;;;;;;;6193463;23;20126;-90
2022/05/24 10:58:09;;;;;;;0.10;0.10;;;;;;;;;;6193150;23;20016;-90
2022/05/24 11:00:38;;;;;;;0.10;0.10;;;;;;;;;;6193664;23;20035;-89
2022/05/24 11:03:10;;;;;;;0.10;0.10;;;;;;;;;;6242557;22;20050;-89
2022/05/24 11:05:42;;;;;;;0.20;0.20;;;;;;;;;;6193050;23;20095;-88
2022/05/24 11:08:27;;;;;;;0.10;0.10;;;;;;;;;;6218219;23;20066;-91
2022/05/24 11:10:53;;;;;;;0.10;0.10;;;;;;;;;;6217747;23;20048;-91
2022/05/24 11:13:23;;;;;;;0.10;0.10;;;;;;;;;;6192896;23;20016;-91
2022/05/24 11:15:50;;;;;;;0.10;0.10;;;;;;;;;;6193121;23;20012;-91
2022/05/24 11:18:17;;;;;;;0.10;0.10;;;;;;;;;;6217887;23;20012;-89
2022/05/24 11:20:45;;;;;;;0.10;0.10;;;;;;;;;;6218188;23;20012;-91
2022/05/24 11:23:14;;;;;;;0.10;0.10;;;;;;;;;;6217837;23;20294;-91
2022/05/24 11:25:41;;;;;;;0.10;0.10;;;;;;;;;;6191359;23;20008;-90
2022/05/24 11:28:08;;;;;;;0.10;0.10;;;;;;;;;;6192897;23;20107;-89
2022/05/24 11:30:36;;;;;;;0.10;0.10;;;;;;;;;;6217781;23;20074;-90
2022/05/24 11:33:05;;;;;;;0.30;0.30;;;;;;;;;;6192785;23;20338;-91
2022/05/24 11:35:36;;;;;;;0.10;0.10;;;;;;;;;;6217629;23;20012;-90
2022/05/24 11:38:12;;;;;;;0.10;0.10;;;;;;;;;;6217913;23;20016;-91
2022/05/24 11:41:19;;;;;;;0.10;0.10;;;;;;;;;;6218519;23;20050;-91
2022/05/24 11:43:45;;;;;;;0.10;0.10;;;;;;;;;;6218961;23;20012;-88
2022/05/24 11:46:11;;;;;;;0.10;0.10;;;;;;;;;;6219360;23;20338;-91
2022/05/24 11:48:45;;;;;;;0.10;0.10;;;;;;;;;;6227100;23;20016;-91
2022/05/24 11:51:29;;;;;;;0.10;0.10;;;;;;;;;;6212695;23;20020;-90
2022/05/24 11:53:55;;;;;;;0.10;0.10;;;;;;;;;;6219441;23;20048;-89
2022/05/24 11:56:21;;;;;;;0.10;0.10;;;;;;;;;;6193245;23;20023;-89
2022/05/24 11:58:48;;;;;;;0.10;0.10;;;;;;;;;;6219835;23;20152;-90
2022/05/24 12:01:23;;;;;;;0.15;0.15;;;;;;;;;;6194425;23;20019;-90
2022/05/24 12:10:01;;;;;;;0.10;0.10;;;;;;;;;;6244825;23;20020;-88
2022/05/24 12:12:29;;;;;;;0.10;0.10;;;;;;;;;;6194500;22;20180;-88
2022/05/24 12:15:19;;;;;;;0.15;0.15;;;;;;;;;;6219683;23;20051;-89
2022/05/24 12:17:45;;;;;;;0.10;0.10;;;;;;;;;;6236616;23;20016;-89
2022/05/24 12:20:27;;;;;;;0.10;0.10;;;;;;;;;;6194285;23;20035;-89
2022/05/24 12:23:15;;;;;;;0.10;0.10;;;;;;;;;;6194398;23;20091;-89
2022/05/24 12:25:54;;;;;;;0.10;0.10;;;;;;;;;;6244623;23;20036;-89
2022/05/24 12:28:20;;;;;;;0.10;0.10;;;;;;;;;;6194300;23;20012;-90
2022/05/24 12:30:47;;;;;;;0.10;0.10;;;;;;;;;;6219377;23;20362;-91
2022/05/24 12:33:18;;;;;;;0.10;0.10;;;;;;;;;;6219272;23;20388;-92
2022/05/24 12:35:54;;;;;;;0.10;0.10;;;;;;;;;;6195158;23;20024;-93
2022/05/24 12:38:21;;;;;;;0.10;0.10;;;;;;;;;;6195310;23;20019;-94
2022/05/24 12:40:49;;;;;;;0.10;0.10;;;;;;;;;;6195259;23;20008;-94
2022/05/24 12:43:17;;;;;;;0.10;0.10;;;;;;;;;;6198308;23;20011;-94
2022/05/24 12:45:50;;;;;;;0.30;0.30;;;;;;;;;;6195644;23;20012;-92
2022/05/24 12:48:25;;;;;;;0.10;0.10;;;;;;;;;;6194882;23;20103;-87
2022/05/24 12:50:56;;;;;;;0.10;0.10;;;;;;;;;;6218940;23;20315;-88
2022/05/24 12:53:22;;;;;;;0.10;0.10;;;;;;;;;;6219939;23;20433;-87
2022/05/24 12:55:56;;;;;;;0.10;0.10;;;;;;;;;;6219291;23;20039;-88
2022/05/24 12:58:34;;;;;;;0.10;0.10;;;;;;;;;;6244071;23;20016;-90
2022/05/24 13:01:20;;;;;;;0.10;0.10;;;;;;;;;;6243970;23;20066;-88
2022/05/24 13:03:58;;;;;;;0.10;0.10;;;;;;;;;;6218210;23;20467;-91
2022/05/24 13:06:32;;;;;;;0.10;0.10;;;;;;;;;;6218875;23;20091;-91
2022/05/24 13:09:27;;;;;;;0.10;0.10;;;;;;;;;;6194073;23;20012;-92
2022/05/24 13:12:00;;;;;;;0.10;0.10;;;;;;;;;;6206219;23;20012;-90
2022/05/24 13:14:32;;;;;;;0.10;0.10;;;;;;;;;;6193767;23;20044;-89
2022/05/24 13:16:58;;;;;;;0.10;0.10;;;;;;;;;;6218841;23;20121;-90
2022/05/24 13:19:24;;;;;;;0.20;0.20;;;;;;;;;;6193745;23;20126;-90
2022/05/24 13:21:54;;;;;;;0.10;0.10;;;;;;;;;;6218593;23;20043;-91
2022/05/24 13:24:20;;;;;;;0.20;0.20;;;;;;;;;;6218682;23;20428;-91
2022/05/24 13:27:02;;;;;;;0.10;0.10;;;;;;;;;;6193453;23;20024;-90
2022/05/24 13:33:33;;;;;;;0.10;0.10;;;;;;;;;;6194449;23;20016;-91
2022/05/24 13:35:02;;;;;;;0.10;0.10;;;;;;;;;;6222859;23;20020;-91
2022/05/24 13:37:46;;;;;;;0.10;0.10;;;;;;;;;;6219254;23;20123;-92
2022/05/24 13:40:13;;;;;;;0.10;0.10;;;;;;;;;;6193929;23;20012;-92
2022/05/24 13:42:39;;;;;;;0.10;0.10;;;;;;;;;;6218391;23;20441;-92
2022/05/24 13:45:06;;;;;;;0.10;0.10;;;;;;;;;;6193902;23;20023;-93
2022/05/24 13:47:35;;;;;;;0.10;0.10;;;;;;;;;;6218468;23;20016;-91
2022/05/24 13:50:22;;;;;;;0.10;0.10;;;;;;;;;;6219228;23;20145;-93
2022/05/24 13:52:55;;;;;;;0.38;0.38;;;;;;;;;;6208295;23;20018;-93
2022/05/24 13:55:25;;;;;;;0.10;0.10;;;;;;;;;;6218813;23;20035;-93
2022/05/24 13:57:55;;;;;;;0.10;0.10;;;;;;;;;;6193440;23;20421;-92
2022/05/24 14:00:26;;;;;;;0.10;0.10;;;;;;;;;;6193507;23;20011;-93
2022/05/24 14:03:11;;;;;;;0.10;0.10;;;;;;;;;;6243930;22;20519;-93
2022/05/24 14:05:37;;;;;;;0.10;0.10;;;;;;;;;;6218698;23;20091;-92
2022/05/24 14:08:03;;;;;;;0.10;0.10;;;;;;;;;;6193334;23;20024;-91
2022/05/24 14:10:30;;;;;;;0.10;0.10;;;;;;;;;;6193158;23;20103;-92
2022/05/24 14:12:56;;;;;;;0.10;0.10;;;;;;;;;;6192714;23;20012;-92
2022/05/24 14:15:23;;;;;;;0.10;0.10;;;;;;;;;;6193357;23;20326;-91
2022/05/24 14:17:50;;;;;;;0.10;0.10;;;;;;;;;;6217095;23;20484;-90
2022/05/24 14:20:19;;;;;;;0.20;0.20;;;;;;;;;;6192873;23;20004;-90
2022/05/24 14:22:45;;;;;;;0.10;0.10;;;;;;;;;;6218297;23;20012;-91
2022/05/24 14:25:13;;;;;;;0.20;0.20;;;;;;;;;;6192875;23;20038;-90
2022/05/24 14:27:39;;;;;;;0.10;0.10;;;;;;;;;;6218346;23;20016;-90
2022/05/24 14:30:06;;;;;;;0.10;0.10;;;;;;;;;;6193167;23;20016;-90
2022/05/24 14:32:32;;;;;;;0.10;0.10;;;;;;;;;;6193552;22;20023;-90
2022/05/24 14:34:58;;;;;;;0.28;0.28;;;;;;;;;;6193168;23;20381;-90
2022/05/24 14:37:24;;;;;;;0.30;0.30;;;;;;;;;;6218009;23;20012;-90
2022/05/24 14:39:50;;;;;;;0.20;0.20;;;;;;;;;;6193577;23;20019;-90
2022/05/24 14:42:16;;;;;;;0.10;0.10;;;;;;;;;;6222934;22;20019;-90
2022/05/24 14:44:42;;;;;;;0.10;0.10;;;;;;;;;;6222558;23;20012;-86
2022/05/24 14:47:08;;;;;;;0.10;0.10;;;;;;;;;;6222647;23;20468;-92
2022/05/24 14:49:34;;;;;;;0.15;0.15;;;;;;;;;;6202368;23;20022;-89
2022/05/24 14:52:01;;;;;;;0.10;0.10;;;;;;;;;;6201473;23;20016;-90
2022/05/24 14:54:27;;;;;;;0.30;0.30;;;;;;;;;;6232385;22;20027;-91
2022/05/24 14:56:53;;;;;;;0.10;0.10;;;;;;;;;;6243953;23;20016;-90
2022/05/24 14:59:22;;;;;;;0.10;0.10;;;;;;;;;;6244754;23;20012;-89
2022/05/24 15:01:48;;;;;;;0.30;0.30;;;;;;;;;;6203288;23;20016;-91
2022/05/24 15:04:14;;;;;;;0.20;0.20;;;;;;;;;;6199811;23;20087;-90
2022/05/24 15:06:44;;;;;;;0.75;0.20;;;;;;;;;;6192742;23;20020;-90
2022/05/24 15:17:33;;;;;;;0.10;0.10;;;;;;;;;;6221286;23;20016;-90
2022/05/24 15:20:10;;;;;;;0.10;0.10;;;;;;;;;;6196212;23;20008;-90
2022/05/24 15:22:44;;;;;;;0.10;0.10;;;;;;;;;;6218918;23;20078;-95
2022/05/24 15:25:10;;;;;;;0.10;0.10;;;;;;;;;;6194295;23;20016;-94
2022/05/24 15:27:36;;;;;;;0.30;0.30;;;;;;;;;;6193566;23;20548;-93
2022/05/24 15:30:03;;;;;;;0.20;0.20;;;;;;;;;;6193572;23;20267;-92
2022/05/24 15:32:29;;;;;;;0.20;0.20;;;;;;;;;;6194163;22;20016;-92
2022/05/24 15:34:55;;;;;;;0.10;0.10;;;;;;;;;;6194958;23;20047;-93
2022/05/24 15:37:21;;;;;;;0.20;0.20;;;;;;;;;;6194622;23;20012;-89
2022/05/24 15:39:47;;;;;;;0.20;0.20;;;;;;;;;;6194536;23;20008;-90
2022/05/24 15:42:13;;;;;;;0.47;0.40;;;;;;;;;;6194288;22;20445;-91
2022/05/24 15:44:39;;;;;;;0.10;0.10;;;;;;;;;;6219727;23;20015;-91
2022/05/24 15:47:05;;;;;;;0.10;0.10;;;;;;;;;;6194806;23;20070;-91
2022/05/24 15:49:32;;;;;;;0.10;0.10;;;;;;;;;;6194711;23;20019;-91
2022/05/24 15:51:58;;;;;;;0.10;0.10;;;;;;;;;;6219394;23;20023;-92
2022/05/24 15:54:24;;;;;;;0.10;0.10;;;;;;;;;;6194490;23;20016;-91
2022/05/24 15:56:50;;;;;;;0.20;0.20;;;;;;;;;;6219527;23;20016;-91
2022/05/24 15:59:16;;;;;;;0.10;0.10;;;;;;;;;;6244657;23;20040;-92
2022/05/24 16:01:45;;;;;;;0.10;0.10;;;;;;;;;;6220154;23;20008;-93